logo dgac
Miércoles 19 de Junio del 2024
Buscar por aerodromo o helipuerto
Ingrese nombre de aeródromo, localidad o designador OACI:
TAF: TAF SCBA 191030Z 1912/2012 10005KT 1000 SN OVC010 TNM05/1913Z TXM01/1919Z BECMG 1916/1918 9999 NSW BKN030 TEMPO 1917/1924 3000 SHRA OVC015 BECMG 2002/2004 OVC010
TAF del 19/06/2024 a las 10:30 UTC
Para mayor información visite www.meteochile.gob.cl
Período de validez: desde el 19 a las 12:00 UTC hasta el 20 a las 12:00 UTC
Viento: dirección 100 grados, velocidad 5 nudos
Visibilidad: 1000 metros
Nieve
Nubes: Cubierto a 1000 pies sobre el nivel del aeródromo
Nan: TNM05/1913Z
Nan: TXM01/1919Z
Se espera un cambio entre las 16:00 UTC del 19 y las 18:00 UTC del 19, :
Visibilidad: 10 km o más
No significant weather phenomena are observed at present
Nubes: Nublado a 3000 pies sobre el nivel del aeródromo
Se espera en forma temporal entre las 17:00 UTC del 19 y las 24:00 UTC del 19:
Visibilidad: 3000 metros
ChubascosLluvia
Nubes: Cubierto a 1500 pies sobre el nivel del aeródromo
Se espera un cambio entre las 02:00 UTC del 20 y las 04:00 UTC del 20, :
Nubes: Cubierto a 1000 pies sobre el nivel del aeródromo